YPKU

Details ICAO YPKU (KNX)
Name Kununurra
Region Australia
Timezone Australia/Perth (UTC+8.0)
Plans Departing 11
Arriving 5
Stats Elevation 145 ft / 44 m (AMSL)
Location -15.777917° 128.709144°
Runways 1
Magnetic Variation 2.638° E
Sunrise 2017-12-10 20:48:23 UTC / 2017-12-11 04:48:23 Local
Sunset 2017-12-11 09:51:02 UTC / 2017-12-11 17:51:02 Local
Advertisement - Login to hide

Runways

ID Width Length Bearing (true) Bearing (mag) Surface Threshold Offset Overrun Length
12 98 ft / 30 m 6,000 ft / 1,829 m 119.80° 117.16° Asphalt 0 ft / 0 m 0 ft / 0 m
30 98 ft / 30 m 6,000 ft / 1,829 m 299.80° 297.16° Asphalt 0 ft / 0 m 0 ft / 0 m

Map

Weather


0- 5 10 15 20 25 30 35+ Temperature / ° C

Clouds and Precipitation
Forecast for 2017-12-11 18:00 UTC. Updated 3 minutes ago

Ground ~20,000 ft ~40,000 ft Winds

METAR

YPKU 111300Z AUTO 35007KT 9999 // NCD 30/23 Q1009

TAF

TAF YPKU 111229Z 1114/1202 30006KT CAVOK FM112000 30007KT 9999 SCT015 FM120000 30007KT CAVOK

Frequencies

Unicom 127.00 MHz CTAF
Warning: Do not use this data for real-world aviation or navigation. No guarantee of current accuracy is given.